Flight Track Log - Related Links

Times and Time Zones

All times are in EDT time to prevent confusion due to time zone crossing. See the SWA3499 flight status page for this flight to view local times or setup timezone preferences in your user account.


Time Position Orientation Groundspeed Altitude Reporting Facility
EDT Latitude Longitude Course Direction KTS MPH feet Rate Location/Type
Thu 08:40:18 PM 28.4000 -81.3000 180° South 157 181 1,000  Level Orlando TRACON
Thu 08:40:36 PM 28.3833 -81.3000 180° South 156 180 1,600 2,278 Climbing Orlando TRACON
Thu 08:41:37 PM 28.3667 -81.2500 111° Southeast 247 284 4,000 2,628 Climbing Orlando TRACON
Thu 08:42:37 PM 28.3833 -81.1667 77° East 239 275 6,900 2,105 Climbing Orlando TRACON
Thu 08:43:31 PM 28.4000 -81.1000 74° East 299 344 8,000 1,362 Climbing Orlando TRACON
Thu 08:45:20 PM 28.5322 -81.1322 348° North 300 345 10,600 1,633 Climbing Jacksonville Center
Thu 08:46:20 PM 28.6144 -81.1922 327° Northwest 322 371 12,600 2,350 Climbing Jacksonville Center
Thu 08:47:20 PM 28.7111 -81.2428 335° Northwest 355 409 15,300 2,650 Climbing Jacksonville Center
Thu 08:48:20 PM 28.8058 -81.2981 333° Northwest 372 428 17,900 2,400 Climbing Jacksonville Center
Thu 08:49:20 PM 28.8964 -81.3747 323° Northwest 390 449 20,100 2,150 Climbing Jacksonville Center
Thu 08:50:20 PM 28.9850 -81.4614 319° Northwest 405 466 22,200 1,850 Climbing Jacksonville Center
Thu 08:51:20 PM 29.0922 -81.5167 336° Northwest 415 478 23,800 1,500 Climbing Jacksonville Center
Thu 08:52:20 PM 29.2136 -81.5483 347° North 415 478 25,200 1,550 Climbing Jacksonville Center
Thu 08:53:20 PM 29.3289 -81.6017 338° Northwest 436 502 26,900 1,500 Climbing Jacksonville Center
Thu 08:54:20 PM 29.4464 -81.6572 338° Northwest 447 514 28,200 1,200 Climbing Jacksonville Center
Thu 08:55:20 PM 29.5658 -81.7225 335° Northwest 462 532 29,300 1,100 Climbing Jacksonville Center
Thu 08:56:20 PM 29.6917 -81.7736 341° North 467 537 30,400 1,150 Climbing Jacksonville Center
Thu 08:57:20 PM 29.8253 -81.7722 North 467 537 31,600 1,050 Climbing Jacksonville Center
Thu 08:58:20 PM 29.9544 -81.7442 11° North 459 528 32,500 1,000 Climbing Jacksonville Center
Thu 08:59:20 PM 30.0856 -81.7092 13° North 468 539 33,600 1,150 Climbing Jacksonville Center
Thu 09:00:20 PM 30.2189 -81.6761 12° North 476 548 34,800 700 Climbing Jacksonville Center
Thu 09:01:20 PM 30.3522 -81.6433 12° North 481 554 35,000 100 Climbing Jacksonville Center
Thu 09:02:20 PM 30.4856 -81.6125 11° North 487 560 35,000  Level Jacksonville Center
Thu 09:03:20 PM 30.6208 -81.5794 12° North 487 560 35,000  Level Jacksonville Center
Thu 09:04:20 PM 30.7542 -81.5461 12° North 487 560 35,000  Level Jacksonville Center
Thu 09:05:20 PM 30.8897 -81.5153 11° North 487 560 35,000  Level Jacksonville Center
Thu 09:06:20 PM 31.0250 -81.4744 15° North 487 560 35,000  Level Jacksonville Center
Thu 09:07:20 PM 31.1472 -81.4044 26° Northeast 481 554 35,000  Level Jacksonville Center
Thu 09:08:20 PM 31.2739 -81.3369 24° Northeast 486 559 35,000  Level Jacksonville Center
Thu 09:09:20 PM 31.4064 -81.2617 26° Northeast 478 550 35,000  Level Jacksonville Center
Thu 09:10:20 PM 31.5183 -81.1989 26° Northeast 478 550 35,000  Level Jacksonville Center
Thu 09:11:20 PM 31.6531 -81.1256 25° Northeast 478 550 35,000  Level Jacksonville Center
Thu 09:12:20 PM 31.7631 -81.0672 24° Northeast 478 550 35,000  Level Jacksonville Center
Thu 09:13:20 PM 31.8956 -80.9911 26° Northeast 478 550 35,000  Level Jacksonville Center
Thu 09:14:20 PM 32.0175 -80.9225 26° Northeast 484 557 35,000  Level Jacksonville Center
Thu 09:15:20 PM 32.1294 -80.8614 25° Northeast 478 550 35,000  Level Jacksonville Center
Thu 09:16:20 PM 32.2639 -80.7872 25° Northeast 485 558 35,000  Level Jacksonville Center
Thu 09:17:20 PM 32.3756 -80.7256 25° Northeast 478 550 35,000  Level Jacksonville Center
Thu 09:18:20 PM 32.4997 -80.6561 25° Northeast 483 556 35,000  Level Jacksonville Center
Thu 09:19:20 PM 32.6236 -80.5864 25° Northeast 483 556 35,000  Level Jacksonville Center
Thu 09:20:20 PM 32.7475 -80.5142 26° Northeast 483 556 35,000  Level Jacksonville Center
Thu 09:21:20 PM 32.8694 -80.4464 25° Northeast 477 549 35,000  Level Jacksonville Center
Thu 09:22:20 PM 32.9953 -80.3736 26° Northeast 484 557 35,000  Level Jacksonville Center
Thu 09:23:20 PM 33.1172 -80.3083 24° Northeast 484 557 35,000  Level Jacksonville Center
Thu 09:24:20 PM 33.2533 -80.2325 25° Northeast 479 551 35,000  Level Jacksonville Center
Thu 09:25:20 PM 33.3686 -80.1617 27° Northeast 479 551 35,000  Level Jacksonville Center
Thu 09:26:20 PM 33.4819 -80.0961 26° Northeast 468 539 35,000  Level Jacksonville Center
Thu 09:27:20 PM 33.6014 -80.0275 26° Northeast 463 533 35,000  Level Jacksonville Center
Thu 09:28:20 PM 33.7189 -79.9586 26° Northeast 463 533 35,000  Level Jacksonville Center
Thu 09:29:20 PM 33.8342 -79.8922 26° Northeast 463 533 35,000  Level Jacksonville Center
Thu 09:30:20 PM 33.9514 -79.8233 26° Northeast 463 533 35,000  Level Jacksonville Center
Thu 09:31:20 PM 34.0708 -79.7539 26° Northeast 463 533 35,000  Level Jacksonville Center
Thu 09:32:20 PM 34.1858 -79.6844 27° Northeast 463 533 35,000  Level Jacksonville Center
Thu 09:34:12 PM 34.4000 -79.5686 24° Northeast 467 537 35,000  Level Washington Center
Thu 09:35:10 PM 34.5186 -79.5089 23° Northeast 467 537 35,000  Level Washington Center
Thu 09:36:11 PM 34.6378 -79.4439 24° Northeast 462 532 35,000  Level Washington Center
Thu 09:37:11 PM 34.7586 -79.3814 23° Northeast 462 532 35,000  Level Washington Center
Thu 09:38:10 PM 34.8794 -79.3186 23° Northeast 462 532 35,000  Level Washington Center
Thu 09:39:11 PM 34.9983 -79.2558 23° Northeast 462 532 35,000  Level Washington Center
Thu 09:40:11 PM 35.1150 -79.1875 26° Northeast 462 532 35,000  Level Washington Center
Thu 09:41:12 PM 35.2222 -79.0981 34° Northeast 462 532 35,000  Level Washington Center
Thu 09:42:10 PM 35.3269 -79.0086 35° Northeast 462 532 35,000  Level Washington Center
Thu 09:43:10 PM 35.4339 -78.9186 34° Northeast 462 532 35,000  Level Washington Center
Thu 09:44:12 PM 35.5406 -78.8314 34° Northeast 462 532 35,000  Level Washington Center
Thu 09:45:12 PM 35.6514 -78.7411 33° Northeast 462 532 35,000  Level Washington Center
Thu 09:46:10 PM 35.7581 -78.6481 35° Northeast 462 532 35,000  Level Washington Center
Thu 09:47:11 PM 35.8522 -78.5647 36° Northeast 462 532 35,000  Level Washington Center
Thu 09:48:10 PM 35.9586 -78.4736 35° Northeast 457 526 35,000  Level Washington Center
Thu 09:49:11 PM 36.0631 -78.3825 35° Northeast 457 526 35,000  Level Washington Center
Thu 09:50:11 PM 36.1717 -78.2911 34° Northeast 457 526 35,000  Level Washington Center
Thu 09:51:12 PM 36.2758 -78.2019 35° Northeast 457 526 35,000  Level Washington Center
Thu 09:52:10 PM 36.3778 -78.1125 35° Northeast 457 526 35,000  Level Washington Center
Thu 09:53:11 PM 36.4883 -78.0153 35° Northeast 446 513 35,000  Level Washington Center
Thu 09:54:11 PM 36.5922 -77.9281 34° Northeast 446 513 35,000  Level Washington Center
Thu 09:55:10 PM 36.6878 -77.8453 35° Northeast 446 513 35,000  Level Washington Center
Thu 09:56:10 PM 36.7917 -77.7575 34° Northeast 451 519 35,000  Level Washington Center
Thu 09:57:11 PM 36.8933 -77.6669 35° Northeast 451 519 35,000  Level Washington Center
Thu 09:58:11 PM 36.9972 -77.5761 35° Northeast 451 519 35,000  Level Washington Center
Thu 09:59:10 PM 37.1028 -77.4850 35° Northeast 451 519 35,000  Level Washington Center
Thu 10:00:11 PM 37.2067 -77.3939 35° Northeast 456 525 35,000  Level Washington Center
Thu 10:01:11 PM 37.3100 -77.3047 34° Northeast 456 525 35,000  Level Washington Center
Thu 10:02:11 PM 37.4114 -77.2181 34° Northeast 451 519 35,000  Level Washington Center
Thu 10:03:12 PM 37.5275 -77.1158 35° Northeast 460 529 35,000  Level Washington Center
Thu 10:04:12 PM 37.6267 -77.0233 36° Northeast 455 524 35,000  Level Washington Center
Thu 10:05:10 PM 37.7300 -76.9308 35° Northeast 455 524 35,000  Level Washington Center
Thu 10:06:10 PM 37.8289 -76.8406 36° Northeast 455 524 35,000  Level Washington Center
Thu 10:07:11 PM 37.9300 -76.7500 35° Northeast 455 524 35,000  Level Washington Center
Thu 10:08:12 PM 38.0286 -76.6619 35° Northeast 450 518 35,000  Level Washington Center
Thu 10:09:11 PM 38.1297 -76.5683 36° Northeast 444 511 35,000  Level Washington Center
Thu 10:10:12 PM 38.2303 -76.4800 35° Northeast 444 511 35,000  Level Washington Center
Thu 10:11:10 PM 38.3186 -76.4014 35° Northeast 435 501 35,000  Level Washington Center
Thu 10:12:12 PM 38.4214 -76.3044 36° Northeast 435 501 35,000  Level Washington Center
Thu 10:13:10 PM 38.5197 -76.2125 36° Northeast 435 501 35,000  Level Washington Center
Thu 10:14:10 PM 38.6267 -76.1231 33° Northeast 443 510 35,000  Level Washington Center
Thu 10:15:10 PM 38.7269 -76.0281 36° Northeast 443 510 35,000  Level Washington Center
Thu 10:16:11 PM 38.8272 -75.9381 35° Northeast 443 510 35,000  Level Washington Center
Thu 10:17:12 PM 38.9256 -75.8450 36° Northeast 443 510 35,000  Level Washington Center
Thu 10:18:13 PM 39.0217 -75.7519 37° Northeast 443 510 35,000  Level Washington Center
Thu 10:19:12 PM 39.1217 -75.6611 35° Northeast 438 504 35,000  Level Washington Center
Thu 10:20:10 PM 39.2197 -75.5675 36° Northeast 438 504 35,000  Level Washington Center
Thu 10:22:23 PM 39.4317 -75.3700 36° Northeast 458 527 35,000  Level New York Center
Thu 10:23:23 PM 39.5314 -75.2767 36° Northeast 446 513 35,000  Level New York Center
Thu 10:24:21 PM 39.6264 -75.1858 36° Northeast 434 499 35,000  Level New York Center
Thu 10:25:21 PM 39.7303 -75.0817 38° Northeast 428 493 35,000  Level New York Center
Thu 10:26:22 PM 39.8189 -74.9981 36° Northeast 428 493 35,000  Level New York Center
Thu 10:27:23 PM 39.9161 -74.9036 37° Northeast 428 493 35,000  Level New York Center
Thu 10:28:23 PM 40.0078 -74.7817 46° Northeast 421 484 35,000  Level New York Center
Thu 10:29:23 PM 40.0889 -74.6669 47° Northeast 426 490 35,000  Level New York Center
Thu 10:30:22 PM 40.1989 -74.6161 19° North 421 484 35,000  Level New York Center
Thu 10:31:23 PM 40.3108 -74.5733 16° North 404 465 35,000  Level New York Center
Thu 10:32:21 PM 40.4244 -74.5386 13° North 404 465 35,000  Level New York Center
Thu 10:33:23 PM 40.5422 -74.5014 14° North 415 478 35,000  Level New York Center
Thu 10:34:56 PM 40.7214 -74.4475 13° North 414 476 35,000  Level Boston Center
Thu 10:35:56 PM 40.8347 -74.4097 14° North 414 476 35,000  Level Boston Center
Thu 10:36:56 PM 40.9372 -74.3853 10° North 414 476 35,000  Level Boston Center
Thu 10:37:56 PM 41.0525 -74.3503 13° North 414 476 35,000  Level Boston Center
Thu 10:38:56 PM 41.1656 -74.3150 13° North 414 476 35,000  Level Boston Center
Thu 10:39:56 PM 41.2767 -74.2742 15° North 414 476 35,000  Level Boston Center
Thu 10:40:56 PM 41.3897 -74.2414 12° North 414 476 35,000  Level Boston Center
Thu 10:41:56 PM 41.5031 -74.2058 13° North 414 476 35,000 -450 Level Boston Center
Thu 10:42:56 PM 41.6181 -74.1700 13° North 414 476 34,100 -950 Descending Boston Center
Thu 10:43:56 PM 41.7269 -74.1369 13° North 409 471 33,100 -1,050 Descending Boston Center
Thu 10:44:56 PM 41.8400 -74.1036 12° North 390 449 32,000 -1,050 Descending Boston Center
Thu 10:45:56 PM 41.9469 -74.0675 14° North 385 443 31,000 -1,000 Descending Boston Center
Thu 10:46:56 PM 42.0494 -74.0336 14° North 380 437 30,000 -1,000 Descending Boston Center
Thu 10:47:56 PM 42.1542 -74.0028 12° North 380 437 29,000 -1,050 Descending Boston Center
Thu 10:48:56 PM 42.2547 -73.9689 14° North 375 432 27,900 -1,050 Descending Boston Center
Thu 10:49:56 PM 42.3531 -73.9375 13° North 370 426 26,900 -1,000 Descending Boston Center
Thu 10:50:56 PM 42.4492 -73.9061 14° North 365 420 25,900 -1,000 Descending Boston Center
Thu 10:51:56 PM 42.5414 -73.8744 14° North 348 400 24,900 -900 Descending Boston Center
Thu 10:52:56 PM 42.5964 -73.8022 44° Northeast 329 379 24,100 -1,000 Descending Boston Center
Thu 10:53:56 PM 42.6169 -73.6447 80° East 307 353 22,900 -1,100 Descending Boston Center
Thu 10:54:56 PM 42.6350 -73.5125 79° East 319 367 21,900 -1,000 Descending Boston Center
Thu 10:55:56 PM 42.6508 -73.3828 81° East 339 390 20,900 -900 Descending Boston Center
Thu 10:56:56 PM 42.6642 -73.2758 80° East 339 390 20,100 -950 Descending Boston Center
Thu 10:57:56 PM 42.6775 -73.1406 82° East 334 384 19,000 -550 Descending Boston Center
Thu 10:58:56 PM 42.6928 -73.0164 80° East 329 379 19,000  Level Boston Center
Thu 10:59:56 PM 42.7100 -72.9036 78° East 334 384 19,000 -250 Level Boston Center
Thu 11:00:56 PM 42.7250 -72.7764 81° East 334 384 18,500 -600 Descending Boston Center
Thu 11:01:56 PM 42.7400 -72.6492 81° East 334 384 17,800 -800 Descending Boston Center
Thu 11:02:56 PM 42.7547 -72.5278 81° East 334 384 16,900 -1,300 Descending Boston Center
Thu 11:03:56 PM 42.7672 -72.4089 82° East 334 384 15,200 -1,950 Descending Boston Center
Thu 11:04:56 PM 42.7817 -72.2761 82° East 329 379 13,000 -1,900 Descending Boston Center
Thu 11:05:56 PM 42.7961 -72.1600 80° East 324 373 11,400 -1,400 Descending Boston Center
Thu 11:06:56 PM 42.8083 -72.0467 82° East 312 359 10,200 -1,050 Descending Boston Center
Thu 11:07:56 PM 42.8203 -71.9447 81° East 288 331 9,300 -900 Descending Boston Center
Thu 11:08:56 PM 42.8178 -71.8456 92° East 267 307 8,400 -1,100 Descending Boston Center
Thu 11:09:56 PM 42.8025 -71.7525 103° East 254 292 7,100 -1,150 Descending Boston Center
Thu 11:10:56 PM 42.7856 -71.6792 107° East 224 258 6,100 -1,150 Descending Boston Center
Thu 11:11:56 PM 42.7933 -71.6139 81° East 175 201 4,800 -1,500 Descending Boston Center
Thu 11:12:56 PM 42.8306 -71.5708 40° Northeast 148 170 3,100 -1,300 Descending Boston Center
Thu 11:13:56 PM 42.8617 -71.5336 41° Northeast 153 176 2,200 -950 Descending Boston Center
Thu 11:14:56 PM 42.8925 -71.4936 44° Northeast 153 176 1,200 -850 Descending Boston Center
Thu 11:15:56 PM 42.9214 -71.4592 41° Northeast 147 169 500 8,900 Descending Boston Center
Thu 11:16:56 PM 42.9522 -71.4217 42° Northeast 147 169 19,000 9,250 Climbing Boston Center
Thu 11:17:56 PM 42.9833 -71.3872 39° Northeast 147 169 19,000  Level Boston Center
Thu 11:18:56 PM 43.0142 -71.3497 42° Northeast 147 169 19,000  Level Boston Center
Thu 11:19:56 PM 43.0450 -71.3150 39° Northeast 147 169 19,000  Level Boston Center
Thu 11:20:56 PM 43.0575 -71.3006 40° Northeast 147 169 19,000  Level Boston Center
Thu 11:21:56 PM 43.0575 -71.3006 90° East 147 169 19,000  Level Boston Center
Thu 11:23:00 PM 42.9593 -71.3933 215° Southwest  Level FlightAware Approximate
Thu 11:30:00 PM 42.9328 -71.4358 216° Southwest  Level Estimated
Thu 11:31:00 PM 42.9328 -71.4358 216° Southwest  Level Estimated
Thu 11:32:00 PM 42.9328 -71.4358 216° Southwest  Level Estimated
Thu 11:33:00 PM 42.9328 -71.4358 216° Southwest  Level Estimated
Thu 11:34:00 PM 42.9328 -71.4358 216° Southwest  Level Estimated

Login

Don't have an account? Register now (free) for customized features, flight alerts, and more!